sensor_id;sensor_type;location;lat;lon;timestamp;pressure;altitude;pressure_sealevel;temperature;humidity
54042;BME280;41156;51.508;5.406;2023-02-21T00:01:41;101999.38;;;8.54;100.00
54042;BME280;41156;51.508;5.406;2023-02-21T00:05:00;101998.38;;;8.55;100.00
54042;BME280;41156;51.508;5.406;2023-02-21T00:08:19;102000.19;;;8.54;100.00
54042;BME280;41156;51.508;5.406;2023-02-21T00:11:44;102008.44;;;8.52;100.00
54042;BME280;41156;51.508;5.406;2023-02-21T00:15:03;102005.97;;;8.51;100.00
54042;BME280;41156;51.508;5.406;2023-02-21T00:18:22;102003.44;;;8.49;100.00
54042;BME280;41156;51.508;5.406;2023-02-21T00:21:41;102007.13;;;8.48;100.00
54042;BME280;41156;51.508;5.406;2023-02-21T00:25:00;102008.13;;;8.47;100.00
54042;BME280;41156;51.508;5.406;2023-02-21T00:28:19;102001.09;;;8.46;100.00
54042;BME280;41156;51.508;5.406;2023-02-21T00:31:38;102008.31;;;8.46;100.00
54042;BME280;41156;51.508;5.406;2023-02-21T00:34:57;102000.44;;;8.44;100.00
54042;BME280;41156;51.508;5.406;2023-02-21T00:38:16;102002.09;;;8.45;100.00
54042;BME280;41156;51.508;5.406;2023-02-21T00:41:35;101999.69;;;8.42;100.00
54042;BME280;41156;51.508;5.406;2023-02-21T00:44:54;102001.56;;;8.42;100.00
54042;BME280;41156;51.508;5.406;2023-02-21T00:48:22;101996.34;;;8.40;100.00
54042;BME280;41156;51.508;5.406;2023-02-21T00:51:40;101999.88;;;8.41;100.00
54042;BME280;41156;51.508;5.406;2023-02-21T00:54:59;102001.91;;;8.39;100.00
54042;BME280;41156;51.508;5.406;2023-02-21T00:58:20;101994.66;;;8.39;100.00
54042;BME280;41156;51.508;5.406;2023-02-21T01:01:39;101987.59;;;8.38;100.00
54042;BME280;41156;51.508;5.406;2023-02-21T01:04:59;101988.59;;;8.37;100.00
54042;BME280;41156;51.508;5.406;2023-02-21T01:08:18;101980.69;;;8.36;100.00
54042;BME280;41156;51.508;5.406;2023-02-21T01:11:37;101978.00;;;8.36;100.00
54042;BME280;41156;51.508;5.406;2023-02-21T01:14:56;101975.31;;;8.36;100.00
54042;BME280;41156;51.508;5.406;2023-02-21T01:18:15;101979.88;;;8.35;100.00
54042;BME280;41156;51.508;5.406;2023-02-21T01:21:34;101974.47;;;8.35;100.00
54042;BME280;41156;51.508;5.406;2023-02-21T01:24:53;101982.72;;;8.33;100.00
54042;BME280;41156;51.508;5.406;2023-02-21T01:28:12;101975.47;;;8.34;100.00
54042;BME280;41156;51.508;5.406;2023-02-21T01:31:31;101967.75;;;8.31;100.00
54042;BME280;41156;51.508;5.406;2023-02-21T01:34:49;101969.59;;;8.30;100.00
54042;BME280;41156;51.508;5.406;2023-02-21T01:38:08;101967.94;;;8.29;100.00
54042;BME280;41156;51.508;5.406;2023-02-21T01:41:27;101962.72;;;8.28;100.00
54042;BME280;41156;51.508;5.406;2023-02-21T01:44:47;101961.69;;;8.29;100.00
54042;BME280;41156;51.508;5.406;2023-02-21T01:48:11;101957.34;;;8.28;100.00
54042;BME280;41156;51.508;5.406;2023-02-21T01:51:33;101963.72;;;8.27;100.00
54042;BME280;41156;51.508;5.406;2023-02-21T01:54:54;101960.38;;;8.25;100.00
54042;BME280;41156;51.508;5.406;2023-02-21T01:58:13;101965.75;;;8.25;100.00
54042;BME280;41156;51.508;5.406;2023-02-21T02:01:41;101957.34;;;8.28;100.00
54042;BME280;41156;51.508;5.406;2023-02-21T02:05:04;101958.34;;;8.27;100.00
54042;BME280;41156;51.508;5.406;2023-02-21T02:08:27;101956.66;;;8.26;100.00
54042;BME280;41156;51.508;5.406;2023-02-21T02:12:05;101950.44;;;8.25;100.00
54042;BME280;41156;51.508;5.406;2023-02-21T02:35:31;101936.66;;;8.20;100.00
54042;BME280;41156;51.508;5.406;2023-02-21T02:38:55;101929.75;;;8.18;100.00
54042;BME280;41156;51.508;5.406;2023-02-21T02:45:30;101927.03;;;8.18;100.00
54042;BME280;41156;51.508;5.406;2023-02-21T02:48:45;101920.16;;;8.15;100.00
54042;BME280;41156;51.508;5.406;2023-02-21T02:51:47;101910.22;;;8.15;100.00
54042;BME280;41156;51.508;5.406;2023-02-21T02:55:00;101910.06;;;8.17;100.00
54042;BME280;41156;51.508;5.406;2023-02-21T02:58:02;101907.72;;;8.14;100.00
54042;BME280;41156;51.508;5.406;2023-02-21T03:07:37;101906.53;;;8.17;100.00
54042;BME280;41156;51.508;5.406;2023-02-21T03:14:05;101905.72;;;8.16;100.00
54042;BME280;41156;51.508;5.406;2023-02-21T03:17:10;101906.53;;;8.17;100.00
54042;BME280;41156;51.508;5.406;2023-02-21T03:20:13;101905.72;;;8.16;100.00
54042;BME280;41156;51.508;5.406;2023-02-21T03:23:17;101913.09;;;8.14;100.00
54042;BME280;41156;51.508;5.406;2023-02-21T03:26:19;101910.56;;;8.12;100.00
54042;BME280;41156;51.508;5.406;2023-02-21T03:29:19;101914.31;;;8.11;100.00
54042;BME280;41156;51.508;5.406;2023-02-21T03:32:42;101909.91;;;8.10;100.00
54042;BME280;41156;51.508;5.406;2023-02-21T03:35:44;101909.91;;;8.10;100.00
54042;BME280;41156;51.508;5.406;2023-02-21T03:38:44;101903.53;;;8.11;100.00
54042;BME280;41156;51.508;5.406;2023-02-21T03:41:45;101905.19;;;8.12;100.00
54042;BME280;41156;51.508;5.406;2023-02-21T03:44:45;101908.91;;;8.11;100.00
54042;BME280;41156;51.508;5.406;2023-02-21T03:47:45;101908.91;;;8.11;100.00
54042;BME280;41156;51.508;5.406;2023-02-21T03:50:45;101900.66;;;8.13;100.00
54042;BME280;41156;51.508;5.406;2023-02-21T03:53:46;101898.16;;;8.11;100.00
54042;BME280;41156;51.508;5.406;2023-02-21T03:56:46;101910.75;;;8.11;100.00
54042;BME280;41156;51.508;5.406;2023-02-21T03:59:46;101906.56;;;8.08;100.00
54042;BME280;41156;51.508;5.406;2023-02-21T04:02:46;101908.41;;;8.08;100.00
54042;BME280;41156;51.508;5.406;2023-02-21T04:05:47;101917.34;;;8.08;100.00
54042;BME280;41156;51.508;5.406;2023-02-21T04:08:47;101915.31;;;8.10;100.00
54042;BME280;41156;51.508;5.406;2023-02-21T04:11:47;101908.25;;;8.09;100.00
54042;BME280;41156;51.508;5.406;2023-02-21T04:14:48;101905.72;;;8.08;100.00
54042;BME280;41156;51.508;5.406;2023-02-21T04:17:48;101904.88;;;8.07;100.00
54042;BME280;41156;51.508;5.406;2023-02-21T04:20:48;101892.28;;;8.08;100.00
54042;BME280;41156;51.508;5.406;2023-02-21T04:23:48;101887.88;;;8.07;100.00
54042;BME280;41156;51.508;5.406;2023-02-21T04:26:49;101890.75;;;8.05;100.00
54042;BME280;41156;51.508;5.406;2023-02-21T04:29:49;101895.13;;;8.06;100.00
54042;BME280;41156;51.508;5.406;2023-02-21T04:32:50;101895.13;;;8.06;100.00
54042;BME280;41156;51.508;5.406;2023-02-21T04:35:50;101890.75;;;8.05;100.00
54042;BME280;41156;51.508;5.406;2023-02-21T04:38:51;101890.09;;;8.03;100.00
54042;BME280;41156;51.508;5.406;2023-02-21T04:41:51;101897.50;;;8.01;100.00
54042;BME280;41156;51.508;5.406;2023-02-21T04:44:52;101892.13;;;8.01;100.00
54042;BME280;41156;51.508;5.406;2023-02-21T04:47:52;101872.59;;;7.99;100.00
54042;BME280;41156;51.508;5.406;2023-02-21T04:50:52;101880.00;;;7.97;100.00
54042;BME280;41156;51.508;5.406;2023-02-21T04:53:53;101885.03;;;8.00;100.00
54042;BME280;41156;51.508;5.406;2023-02-21T04:56:54;101877.97;;;7.99;100.00
54042;BME280;41156;51.508;5.406;2023-02-21T04:59:56;101870.75;;;8.00;100.00
54042;BME280;41156;51.508;5.406;2023-02-21T05:02:57;101882.53;;;7.99;100.00
54042;BME280;41156;51.508;5.406;2023-02-21T05:05:57;101879.00;;;7.98;100.00
54042;BME280;41156;51.508;5.406;2023-02-21T05:08:58;101873.44;;;8.00;100.00
54042;BME280;41156;51.508;5.406;2023-02-21T05:11:59;101874.28;;;8.00;100.00
54042;BME280;41156;51.508;5.406;2023-02-21T05:14:59;101870.94;;;7.98;100.00
54042;BME280;41156;51.508;5.406;2023-02-21T05:17:59;101882.53;;;7.99;100.00
54042;BME280;41156;51.508;5.406;2023-02-21T05:20:59;101882.53;;;7.99;100.00
54042;BME280;41156;51.508;5.406;2023-02-21T05:24:00;101885.38;;;7.97;100.00
54042;BME280;41156;51.508;5.406;2023-02-21T05:27:01;101882.69;;;7.97;100.00
54042;BME280;41156;51.508;5.406;2023-02-21T05:30:01;101885.56;;;7.95;100.00
54042;BME280;41156;51.508;5.406;2023-02-21T05:33:02;101890.09;;;7.95;100.00
54042;BME280;41156;51.508;5.406;2023-02-21T05:36:02;101892.81;;;7.95;100.00
54042;BME280;41156;51.508;5.406;2023-02-21T05:39:03;101890.94;;;7.95;100.00
54042;BME280;41156;51.508;5.406;2023-02-21T05:42:04;101892.81;;;7.95;100.00
54042;BME280;41156;51.508;5.406;2023-02-21T05:45:05;101894.84;;;7.93;100.00
54042;BME280;41156;51.508;5.406;2023-02-21T05:48:05;101894.84;;;7.93;100.00
54042;BME280;41156;51.508;5.406;2023-02-21T05:51:06;101897.34;;;7.94;100.00
54042;BME280;41156;51.508;5.406;2023-02-21T05:54:08;101888.41;;;7.94;100.00
54042;BME280;41156;51.508;5.406;2023-02-21T05:57:09;101889.44;;;7.93;100.00
54042;BME280;41156;51.508;5.406;2023-02-21T06:00:29;101892.97;;;7.93;100.00
54042;BME280;41156;51.508;5.406;2023-02-21T06:03:29;101887.75;;;7.92;100.00
54042;BME280;41156;51.508;5.406;2023-02-21T06:06:29;101893.97;;;7.92;100.00
54042;BME280;41156;51.508;5.406;2023-02-21T06:09:30;101891.28;;;7.92;100.00
54042;BME280;41156;51.508;5.406;2023-02-21T06:12:30;101903.91;;;7.92;100.00
54042;BME280;41156;51.508;5.406;2023-02-21T06:15:30;101898.53;;;7.92;100.00
54042;BME280;41156;51.508;5.406;2023-02-21T06:18:30;101895.81;;;7.92;100.00
54042;BME280;41156;51.508;5.406;2023-02-21T06:21:31;101900.22;;;7.93;100.00
54042;BME280;41156;51.508;5.406;2023-02-21T06:24:32;101899.34;;;7.92;100.00
54042;BME280;41156;51.508;5.406;2023-02-21T06:27:32;101902.22;;;7.91;100.00
54042;BME280;41156;51.508;5.406;2023-02-21T06:30:32;101895.16;;;7.90;100.00
54042;BME280;41156;51.508;5.406;2023-02-21T06:33:33;101892.66;;;7.88;100.00
54042;BME280;41156;51.508;5.406;2023-02-21T06:36:33;101896.34;;;7.87;100.00
54042;BME280;41156;51.508;5.406;2023-02-21T06:39:34;101899.19;;;7.86;100.00
54042;BME280;41156;51.508;5.406;2023-02-21T06:42:35;101900.88;;;7.87;100.00
54042;BME280;41156;51.508;5.406;2023-02-21T06:45:36;101896.84;;;7.83;100.00
54042;BME280;41156;51.508;5.406;2023-02-21T06:48:36;101899.53;;;7.83;100.00
54042;BME280;41156;51.508;5.406;2023-02-21T06:51:38;101895.19;;;7.82;100.00
54042;BME280;41156;51.508;5.406;2023-02-21T06:54:39;101895.84;;;7.84;100.00
54042;BME280;41156;51.508;5.406;2023-02-21T06:57:39;101902.22;;;7.83;100.00
54042;BME280;41156;51.508;5.406;2023-02-21T07:00:39;101899.53;;;7.83;100.00
54042;BME280;41156;51.508;5.406;2023-02-21T07:03:40;101904.09;;;7.82;100.00
54042;BME280;41156;51.508;5.406;2023-02-21T07:06:42;101896.19;;;7.81;100.00
54042;BME280;41156;51.508;5.406;2023-02-21T07:09:42;101900.91;;;7.78;100.00
54042;BME280;41156;51.508;5.406;2023-02-21T07:12:42;101902.75;;;7.78;100.00
54042;BME280;41156;51.508;5.406;2023-02-21T07:15:43;101903.94;;;7.75;100.00
54042;BME280;41156;51.508;5.406;2023-02-21T07:18:44;101899.56;;;7.74;100.00
54042;BME280;41156;51.508;5.406;2023-02-21T07:21:44;101899.38;;;7.76;100.00
54042;BME280;41156;51.508;5.406;2023-02-21T07:24:45;101906.78;;;7.74;100.00
54042;BME280;41156;51.508;5.406;2023-02-21T07:27:46;101903.94;;;7.75;100.00
54042;BME280;41156;51.508;5.406;2023-02-21T07:30:47;101897.53;;;7.76;100.00
54042;BME280;41156;51.508;5.406;2023-02-21T07:33:47;101902.75;;;7.78;100.00
54042;BME280;41156;51.508;5.406;2023-02-21T07:36:49;101908.13;;;7.78;100.00
54042;BME280;41156;51.508;5.406;2023-02-21T07:39:49;101904.59;;;7.77;100.00
54042;BME280;41156;51.508;5.406;2023-02-21T07:42:50;101910.66;;;7.80;100.00
54042;BME280;41156;51.508;5.406;2023-02-21T07:45:50;101909.63;;;7.81;100.00
54042;BME280;41156;51.508;5.406;2023-02-21T07:48:50;101909.63;;;7.81;100.00
54042;BME280;41156;51.508;5.406;2023-02-21T07:51:51;101913.84;;;7.83;100.00
54042;BME280;41156;51.508;5.406;2023-02-21T07:54:51;101904.09;;;7.82;100.00
54042;BME280;41156;51.508;5.406;2023-02-21T07:57:51;101906.59;;;7.84;100.00
54042;BME280;41156;51.508;5.406;2023-02-21T08:00:51;101913.84;;;7.83;100.00
54042;BME280;41156;51.508;5.406;2023-02-21T08:03:54;101903.09;;;7.83;100.00
54042;BME280;41156;51.508;5.406;2023-02-21T08:06:59;101901.72;;;7.79;100.00
54042;BME280;41156;51.508;5.406;2023-02-21T08:09:59;101907.28;;;7.77;100.00
54042;BME280;41156;51.508;5.406;2023-02-21T08:13:00;101913.53;;;7.78;100.00
54042;BME280;41156;51.508;5.406;2023-02-21T08:16:00;101913.34;;;7.80;100.00
54042;BME280;41156;51.508;5.406;2023-02-21T08:19:01;101896.50;;;7.77;100.00
54042;BME280;41156;51.508;5.406;2023-02-21T08:22:01;101899.22;;;7.77;100.00
54042;BME280;41156;51.508;5.406;2023-02-21T08:25:02;101911.50;;;7.80;100.00
54042;BME280;41156;51.508;5.406;2023-02-21T08:28:02;101914.00;;;7.82;100.00
54042;BME280;41156;51.508;5.406;2023-02-21T08:31:03;101914.50;;;7.85;100.00
54042;BME280;41156;51.508;5.406;2023-02-21T08:34:04;101906.28;;;7.87;100.00
54042;BME280;41156;51.508;5.406;2023-02-21T08:37:05;101891.97;;;7.86;100.00
54042;BME280;41156;51.508;5.406;2023-02-21T08:40:14;101900.56;;;7.90;100.00
54042;BME280;41156;51.508;5.406;2023-02-21T08:43:14;101910.28;;;7.91;100.00
54042;BME280;41156;51.508;5.406;2023-02-21T08:46:14;101907.59;;;7.91;100.00
54042;BME280;41156;51.508;5.406;2023-02-21T08:49:15;101909.94;;;7.94;100.00
54042;BME280;41156;51.508;5.406;2023-02-21T08:52:17;101901.69;;;7.95;100.00
54042;BME280;41156;51.508;5.406;2023-02-21T08:55:18;101899.88;;;7.96;100.00
54042;BME280;41156;51.508;5.406;2023-02-21T08:58:19;101895.63;;;8.02;100.00
54042;BME280;41156;51.508;5.406;2023-02-21T09:01:20;101900.50;;;8.06;100.00
54042;BME280;41156;51.508;5.406;2023-02-21T09:04:21;101895.97;;;8.07;100.00
54042;BME280;41156;51.508;5.406;2023-02-21T09:07:21;101897.28;;;8.11;100.00
54042;BME280;41156;51.508;5.406;2023-02-21T09:10:22;101890.72;;;8.13;100.00
54042;BME280;41156;51.508;5.406;2023-02-21T09:13:22;101887.03;;;8.14;100.00
54042;BME280;41156;51.508;5.406;2023-02-21T09:16:22;101891.69;;;8.21;100.00
54042;BME280;41156;51.508;5.406;2023-02-21T09:19:23;101891.19;;;8.25;100.00
54042;BME280;41156;51.508;5.406;2023-02-21T09:22:23;101884.63;;;8.28;100.00
54042;BME280;41156;51.508;5.406;2023-02-21T09:25:24;101888.16;;;8.28;100.00
54042;BME280;41156;51.508;5.406;2023-02-21T09:28:24;101892.34;;;8.31;100.00
54042;BME280;41156;51.508;5.406;2023-02-21T09:31:24;101882.06;;;8.34;100.00
54042;BME280;41156;51.508;5.406;2023-02-21T09:34:25;101867.22;;;8.39;100.00
54042;BME280;41156;51.508;5.406;2023-02-21T09:37:25;101873.44;;;8.39;100.00
54042;BME280;41156;51.508;5.406;2023-02-21T09:43:44;101871.44;;;8.41;100.00
54042;BME280;41156;51.508;5.406;2023-02-21T09:46:50;101864.19;;;8.42;100.00
54042;BME280;41156;51.508;5.406;2023-02-21T09:49:58;101865.53;;;8.46;100.00
54042;BME280;41156;51.508;5.406;2023-02-21T09:53:00;101871.44;;;8.49;100.00
54042;BME280;41156;51.508;5.406;2023-02-21T09:56:05;101880.34;;;8.50;100.00
54042;BME280;41156;51.508;5.406;2023-02-21T09:59:13;101880.66;;;8.55;100.00
54042;BME280;41156;51.508;5.406;2023-02-21T10:05:51;101884.88;;;8.58;100.00
54042;BME280;41156;51.508;5.406;2023-02-21T10:08:58;101884.16;;;8.64;100.00
54042;BME280;41156;51.508;5.406;2023-02-21T10:12:12;101880.75;;;8.70;100.00
54042;BME280;41156;51.508;5.406;2023-02-21T10:15:36;101880.75;;;8.70;100.00
54042;BME280;41156;51.508;5.406;2023-02-21T10:18:47;101882.06;;;8.74;100.00
54042;BME280;41156;51.508;5.406;2023-02-21T10:21:51;101883.41;;;8.78;100.00
54042;BME280;41156;51.508;5.406;2023-02-21T10:24:53;101879.31;;;8.82;100.00
54042;BME280;41156;51.508;5.406;2023-02-21T10:27:54;101879.84;;;8.86;100.00
54042;BME280;41156;51.508;5.406;2023-02-21T10:31:03;101867.84;;;8.88;100.00
54042;BME280;41156;51.508;5.406;2023-02-21T10:34:08;101877.63;;;8.89;100.00
54042;BME280;41156;51.508;5.406;2023-02-21T10:37:25;101881.00;;;8.83;100.00
54042;BME280;41156;51.508;5.406;2023-02-21T10:40:41;101880.34;;;8.81;100.00
54042;BME280;41156;51.508;5.406;2023-02-21T10:43:47;101878.19;;;8.77;100.00
54042;BME280;41156;51.508;5.406;2023-02-21T10:47:01;101875.66;;;8.75;100.00
54042;BME280;41156;51.508;5.406;2023-02-21T10:50:07;101895.22;;;8.69;100.00
54042;BME280;41156;51.508;5.406;2023-02-21T10:53:09;101888.34;;;8.66;100.00
54042;BME280;41156;51.508;5.406;2023-02-21T10:56:23;101874.22;;;8.64;100.00
54042;BME280;41156;51.508;5.406;2023-02-21T10:59:27;101880.44;;;8.65;100.00
54042;BME280;41156;51.508;5.406;2023-02-21T11:02:35;101880.94;;;8.68;100.00
54042;BME280;41156;51.508;5.406;2023-02-21T11:05:39;101871.47;;;8.73;100.00
54042;BME280;41156;51.508;5.406;2023-02-21T11:08:42;101865.53;;;8.77;100.00
54042;BME280;41156;51.508;5.406;2023-02-21T11:11:42;101867.34;;;8.85;100.00
54042;BME280;41156;51.508;5.406;2023-02-21T11:15:14;101858.75;;;8.89;100.00
54042;BME280;41156;51.508;5.406;2023-02-21T11:18:13;101852.63;;;8.96;100.00
54042;BME280;41156;51.508;5.406;2023-02-21T11:21:16;101849.38;;;9.00;100.00
54042;BME280;41156;51.508;5.406;2023-02-21T11:24:17;101855.56;;;9.09;100.00
54042;BME280;41156;51.508;5.406;2023-02-21T11:27:17;101848.78;;;9.13;100.00
54042;BME280;41156;51.508;5.406;2023-02-21T11:30:20;101844.41;;;9.12;100.00
54042;BME280;41156;51.508;5.406;2023-02-21T11:33:21;101847.97;;;9.13;100.00
54042;BME280;41156;51.508;5.406;2023-02-21T11:36:28;101843.75;;;9.10;100.00
54042;BME280;41156;51.508;5.406;2023-02-21T11:39:33;101842.06;;;9.09;100.00
54042;BME280;41156;51.508;5.406;2023-02-21T11:42:33;101837.34;;;9.11;100.00
54042;BME280;41156;51.508;5.406;2023-02-21T11:45:36;101832.16;;;9.10;100.00
54042;BME280;41156;51.508;5.406;2023-02-21T11:51:53;101819.44;;;9.18;100.00
54042;BME280;41156;51.508;5.406;2023-02-21T11:54:55;101824.09;;;9.24;100.00
54042;BME280;41156;51.508;5.406;2023-02-21T12:01:20;101817.94;;;9.31;100.00
54042;BME280;41156;51.508;5.406;2023-02-21T12:11:31;101809.94;;;9.22;100.00
54042;BME280;41156;51.508;5.406;2023-02-21T12:15:12;101816.66;;;9.26;100.00
54042;BME280;41156;51.508;5.406;2023-02-21T12:21:31;101803.31;;;9.48;100.00
54042;BME280;41156;51.508;5.406;2023-02-21T12:27:51;101798.09;;;9.61;100.00
54042;BME280;41156;51.508;5.406;2023-02-21T12:31:20;101801.09;;;9.67;100.00
54042;BME280;41156;51.508;5.406;2023-02-21T12:38:04;101788.59;;;9.80;100.00
54042;BME280;41156;51.508;5.406;2023-02-21T12:41:20;101790.09;;;9.83;100.00
54042;BME280;41156;51.508;5.406;2023-02-21T12:51:11;101779.22;;;9.91;100.00
54042;BME280;41156;51.508;5.406;2023-02-21T12:54:37;101789.75;;;9.86;100.00
54042;BME280;41156;51.508;5.406;2023-02-21T12:57:55;101785.06;;;9.80;100.00
54042;BME280;41156;51.508;5.406;2023-02-21T13:01:07;101780.41;;;9.74;100.00
54042;BME280;41156;51.508;5.406;2023-02-21T13:07:37;101772.03;;;9.69;100.00
54042;BME280;41156;51.508;5.406;2023-02-21T13:10:51;101768.25;;;9.63;100.00
54042;BME280;41156;51.508;5.406;2023-02-21T13:13:55;101778.06;;;9.56;100.00
54042;BME280;41156;51.508;5.406;2023-02-21T13:16:57;101764.81;;;9.54;100.00
54042;BME280;41156;51.508;5.406;2023-02-21T13:20:04;101757.72;;;9.53;100.00
54042;BME280;41156;51.508;5.406;2023-02-21T13:23:07;101761.06;;;9.55;100.00
54042;BME280;41156;51.508;5.406;2023-02-21T13:29:19;101767.19;;;9.49;100.00
54042;BME280;41156;51.508;5.406;2023-02-21T13:32:21;101760.13;;;9.48;100.00
54042;BME280;41156;51.508;5.406;2023-02-21T13:35:33;101753.06;;;9.47;100.00
54042;BME280;41156;51.508;5.406;2023-02-21T13:38:34;101751.41;;;9.46;100.00
54042;BME280;41156;51.508;5.406;2023-02-21T13:41:44;101742.81;;;9.42;100.00
54042;BME280;41156;51.508;5.406;2023-02-21T13:44:51;101743.66;;;9.43;100.00
54042;BME280;41156;51.508;5.406;2023-02-21T13:50:59;101737.81;;;9.39;100.00
54042;BME280;41156;51.508;5.406;2023-02-21T13:54:09;101744.22;;;9.38;100.00
54042;BME280;41156;51.508;5.406;2023-02-21T13:57:28;101743.09;;;9.33;100.00
54042;BME280;41156;51.508;5.406;2023-02-21T14:03:30;101740.31;;;9.26;100.00
54042;BME280;41156;51.508;5.406;2023-02-21T14:06:34;101743.84;;;9.26;100.00
54042;BME280;41156;51.508;5.406;2023-02-21T14:09:39;101739.81;;;9.22;100.00
54042;BME280;41156;51.508;5.406;2023-02-21T14:12:43;101736.66;;;9.19;100.00
54042;BME280;41156;51.508;5.406;2023-02-21T14:15:46;101741.59;;;9.15;100.00
54042;BME280;41156;51.508;5.406;2023-02-21T14:19:26;101737.94;;;9.08;100.00
54042;BME280;41156;51.508;5.406;2023-02-21T14:22:31;101734.28;;;9.01;100.00
54042;BME280;41156;51.508;5.406;2023-02-21T14:25:33;101730.22;;;9.05;100.00
54042;BME280;41156;51.508;5.406;2023-02-21T14:29:00;101730.50;;;9.10;100.00
54042;BME280;41156;51.508;5.406;2023-02-21T14:38:22;101710.63;;;9.11;100.00
54042;BME280;41156;51.508;5.406;2023-02-21T14:41:41;101704.84;;;9.14;100.00
54042;BME280;41156;51.508;5.406;2023-02-21T15:01:28;101693.69;;;9.17;100.00
54042;BME280;41156;51.508;5.406;2023-02-21T15:04:40;101695.38;;;9.18;100.00
54042;BME280;41156;51.508;5.406;2023-02-21T15:10:59;101690.34;;;9.15;100.00
54042;BME280;41156;51.508;5.406;2023-02-21T15:14:12;101700.66;;;9.12;100.00
54042;BME280;41156;51.508;5.406;2023-02-21T15:17:18;101699.56;;;9.06;100.00
54042;BME280;41156;51.508;5.406;2023-02-21T15:20:19;101695.53;;;9.02;100.00
54042;BME280;41156;51.508;5.406;2023-02-21T15:23:22;101700.00;;;8.95;100.00
54042;BME280;41156;51.508;5.406;2023-02-21T15:26:30;101698.50;;;8.92;100.00
54042;BME280;41156;51.508;5.406;2023-02-21T15:29:31;101696.16;;;8.89;100.00
54042;BME280;41156;51.508;5.406;2023-02-21T15:32:33;101695.69;;;8.85;100.00
54042;BME280;41156;51.508;5.406;2023-02-21T15:36:30;101687.97;;;8.82;100.00
54042;BME280;41156;51.508;5.406;2023-02-21T15:39:34;101690.38;;;8.77;100.00
54042;BME280;41156;51.508;5.406;2023-02-21T15:42:35;101692.59;;;8.74;100.00
54042;BME280;41156;51.508;5.406;2023-02-21T15:45:43;101691.13;;;8.71;100.00
54042;BME280;41156;51.508;5.406;2023-02-21T15:48:46;101687.09;;;8.67;100.00
54042;BME280;41156;51.508;5.406;2023-02-21T15:51:47;101683.47;;;8.60;100.00
54042;BME280;41156;51.508;5.406;2023-02-21T15:54:48;101680.78;;;8.60;100.00
54042;BME280;41156;51.508;5.406;2023-02-21T15:58:13;101680.13;;;8.58;100.00
54042;BME280;41156;51.508;5.406;2023-02-21T16:01:18;101685.19;;;8.52;100.00
54042;BME280;41156;51.508;5.406;2023-02-21T16:04:22;101677.66;;;8.48;100.00
54042;BME280;41156;51.508;5.406;2023-02-21T16:07:33;101680.06;;;8.43;100.00
54042;BME280;41156;51.508;5.406;2023-02-21T16:10:36;101679.34;;;8.41;100.00
54042;BME280;41156;51.508;5.406;2023-02-21T16:13:39;101681.56;;;8.37;100.00
54042;BME280;41156;51.508;5.406;2023-02-21T16:16:40;101682.78;;;8.34;100.00
54042;BME280;41156;51.508;5.406;2023-02-21T16:19:42;101680.28;;;8.33;100.00
54042;BME280;41156;51.508;5.406;2023-02-21T16:22:48;101680.63;;;8.30;100.00
54042;BME280;41156;51.508;5.406;2023-02-21T16:29:08;101679.69;;;8.23;100.00
54042;BME280;41156;51.508;5.406;2023-02-21T16:32:19;101675.00;;;8.17;100.00
54042;BME280;41156;51.508;5.406;2023-02-21T16:35:22;101677.75;;;8.08;100.00
54042;BME280;41156;51.508;5.406;2023-02-21T16:38:24;101678.63;;;8.01;100.00
54042;BME280;41156;51.508;5.406;2023-02-21T16:41:25;101674.63;;;7.96;100.00
54042;BME280;41156;51.508;5.406;2023-02-21T16:44:26;101670.41;;;7.94;100.00
54042;BME280;41156;51.508;5.406;2023-02-21T16:47:26;101669.59;;;7.93;100.00
54042;BME280;41156;51.508;5.406;2023-02-21T16:50:31;101668.75;;;7.93;100.00
54042;BME280;41156;51.508;5.406;2023-02-21T16:53:31;101666.91;;;7.93;100.00
54042;BME280;41156;51.508;5.406;2023-02-21T16:56:32;101666.06;;;7.93;100.00
54042;BME280;41156;51.508;5.406;2023-02-21T16:59:32;101668.75;;;7.93;100.00
54042;BME280;41156;51.508;5.406;2023-02-21T17:02:33;101669.59;;;7.93;100.00
54042;BME280;41156;51.508;5.406;2023-02-21T17:05:33;101670.41;;;7.94;100.00
54042;BME280;41156;51.508;5.406;2023-02-21T17:08:35;101667.91;;;7.92;100.00
54042;BME280;41156;51.508;5.406;2023-02-21T17:11:36;101664.72;;;7.89;100.00
54042;BME280;41156;51.508;5.406;2023-02-21T17:14:36;101660.38;;;7.88;100.00
54042;BME280;41156;51.508;5.406;2023-02-21T17:17:37;101661.56;;;7.85;100.00
54042;BME280;41156;51.508;5.406;2023-02-21T17:20:38;101658.88;;;7.85;100.00
54042;BME280;41156;51.508;5.406;2023-02-21T17:23:38;101668.13;;;7.83;100.00
54042;BME280;41156;51.508;5.406;2023-02-21T17:26:39;101668.13;;;7.83;100.00
54042;BME280;41156;51.508;5.406;2023-02-21T17:29:39;101661.25;;;7.80;100.00
54042;BME280;41156;51.508;5.406;2023-02-21T17:32:40;101673.56;;;7.74;100.00
54042;BME280;41156;51.508;5.406;2023-02-21T17:35:40;101672.06;;;7.72;100.00
54042;BME280;41156;51.508;5.406;2023-02-21T17:38:40;101672.22;;;7.70;100.00
54042;BME280;41156;51.508;5.406;2023-02-21T17:41:45;101662.47;;;7.69;100.00
54042;BME280;41156;51.508;5.406;2023-02-21T17:44:45;101674.25;;;7.68;100.00
54042;BME280;41156;51.508;5.406;2023-02-21T17:47:47;101661.16;;;7.65;100.00
54042;BME280;41156;51.508;5.406;2023-02-21T17:50:48;101663.38;;;7.62;100.00
54042;BME280;41156;51.508;5.406;2023-02-21T17:53:50;101664.72;;;7.57;100.00
54042;BME280;41156;51.508;5.406;2023-02-21T17:56:51;101661.38;;;7.55;100.00
54042;BME280;41156;51.508;5.406;2023-02-21T17:59:51;101662.19;;;7.56;100.00
54042;BME280;41156;51.508;5.406;2023-02-21T18:02:52;101662.19;;;7.56;100.00
54042;BME280;41156;51.508;5.406;2023-02-21T18:05:53;101672.13;;;7.55;100.00